WetterOnline ( http://www.wetteronline.de )

Wetter aktuell Jessen (Elster)

Aktuelles Wetter: Wittenberg (106m)

6-stündlich | Neueste Meldungen
Ortszeit Temperatur Wetter
Fr, 22.03. 19:00 11.9° C wolkig
Fr, 22.03. 13:00 13.1° C leicht bewölkt
Fr, 22.03. 7:00 4.2° C wolkig
Fr, 22.03. 1:00 6.7° C wolkig
Do, 21.03. 19:00 11.7° C wolkenlos
Do, 21.03. 13:00 13.6° C bewölkt
Do, 21.03. 7:00 6.0° C wolkig
Do, 21.03. 1:00 8.8° C bedeckt
Ortszeit Temperatur Wetter
Fr, 22.03. 19:00 11.9° C wolkig
Fr, 22.03. 18:30 12.4° C wolkenlos
Fr, 22.03. 18:20 12.4° C wolkenlos
Fr, 22.03. 18:10 12.7° C wolkenlos
Fr, 22.03. 18:00 13.3° C wolkenlos
Fr, 22.03. 17:50 13.3° C wolkenlos
Fr, 22.03. 17:30 14.1° C wolkenlos
Fr, 22.03. 17:00 14.9° C leicht bewölkt
Fr, 22.03. 16:30 15.8° C wolkig
Fr, 22.03. 16:00 15.7° C leicht bewölkt
Fr, 22.03. 15:30 15.9° C wolkig
Ortszeit Relative Feuchte Sichtweite
Fr, 22.03. 19:00 81% 3.8 km
Fr, 22.03. 13:00 71% 5.0 km
Fr, 22.03. 7:00 97% 1.1 km
Fr, 22.03. 1:00 95% 3.8 km
Do, 21.03. 19:00 75% 6 km
Do, 21.03. 13:00 61% 9 km
Do, 21.03. 7:00 83% 8 km
Do, 21.03. 1:00 71% 13 km
Ortszeit Relative Feuchte Sichtweite
Fr, 22.03. 19:00 81% 3.8 km
Fr, 22.03. 18:30 81% 3.3 km
Fr, 22.03. 18:20 81% -
Fr, 22.03. 18:10 79% -
Fr, 22.03. 18:00 77% 4.3 km
Fr, 22.03. 17:50 77% -
Fr, 22.03. 17:30 74% 4.6 km
Fr, 22.03. 17:00 70% 5.0 km
Fr, 22.03. 16:30 61% 7 km
Fr, 22.03. 16:00 62% 6 km
Fr, 22.03. 15:30 63% 6 km
Ortszeit Niederschlagsmenge Niederschlagsart
Fr, 22.03. 19:00 0.0 l/m2 in 12 Std. -
Fr, 22.03. 13:00 0.0 l/m2 in 6 Std. -
Fr, 22.03. 7:00 0.0 l/m2 in 12 Std. -
Fr, 22.03. 1:00 0.0 l/m2 in 6 Std. -
Do, 21.03. 19:00 0.0 l/m2 in 12 Std. -
Do, 21.03. 13:00 0.0 l/m2 in 6 Std. -
Do, 21.03. 7:00 0.0 l/m2 in 12 Std. -
Do, 21.03. 1:00 0.0 l/m2 in 6 Std. -
Ortszeit Niederschlagsmenge Niederschlagsart
Fr, 22.03. 19:00 0.0 l/m2 in 1 Std. -
Fr, 22.03. 18:30 0.0 l/m2 in 1 Std. -
Fr, 22.03. 18:20 keine Meldung -
Fr, 22.03. 18:10 keine Meldung -
Fr, 22.03. 18:00 0.0 l/m2 in 1 Std. -
Fr, 22.03. 17:50 keine Meldung -
Fr, 22.03. 17:30 0.0 l/m2 in 1 Std. -
Fr, 22.03. 17:00 0.0 l/m2 in 1 Std. -
Fr, 22.03. 16:30 0.0 l/m2 in 1 Std. -
Fr, 22.03. 16:00 0.0 l/m2 in 1 Std. -
Fr, 22.03. 15:30 0.0 l/m2 in 1 Std. -
Ortszeit Stärke Spitze Richtung
km/h Bft. km/h Grad Sektor
Fr, 22.03. 19:00 9 2 19 80° O
Fr, 22.03. 13:00 6 1 20 130° SO
Fr, 22.03. 7:00 6 1 9 20° N
Fr, 22.03. 1:00 4 1 11 30° NO
Do, 21.03. 19:00 7 2 29 340° N
Do, 21.03. 13:00 7 2 25 280° W
Do, 21.03. 7:00 7 2 14 240° SW
Do, 21.03. 1:00 7 2 11 210° SW
Ortszeit Stärke Spitze Richtung
km/h Bft. km/h Grad Sektor
Fr, 22.03. 19:00 9 2 19 80° O
Fr, 22.03. 18:30 7 2 18 70° O
Fr, 22.03. 18:20 7 2 - 70° O
Fr, 22.03. 18:10 7 2 - 60° NO
Fr, 22.03. 18:00 9 2 19 60° NO
Fr, 22.03. 17:50 9 2 - 60° NO
Fr, 22.03. 17:30 11 2 18 60° NO
Fr, 22.03. 17:00 11 2 18 70° O
Fr, 22.03. 16:30 6 1 11 70° O
Fr, 22.03. 16:00 7 2 14 90° O
Fr, 22.03. 15:30 6 1 11 70° O
Ortszeit Untergrenze Bedeckung Gattung
total tief tief mittel hoch
Fr, 22.03. 19:00 12000 m 7/8 0/8 - - -
Fr, 22.03. 13:00 420 m 2/8 2/8 - - -
Fr, 22.03. 7:00 7800 m 7/8 0/8 - - -
Fr, 22.03. 1:00 8700 m 8/8 0/8 - - -
Do, 21.03. 19:00 - 0/8 0/8 - - -
Do, 21.03. 13:00 810 m 7/8 7/8 - - -
Do, 21.03. 7:00 660 m 6/8 6/8 - - -
Do, 21.03. 1:00 930 m 8/8 8/8 - - -
Ortszeit Bedeckungsgrad in Achtel und Wolkenuntergrenze
Fr, 22.03. 19:00 7(12000m)
Fr, 22.03. 18:30 keine Wolken
Fr, 22.03. 18:20 keine Wolken
Fr, 22.03. 18:10 keine Wolken
Fr, 22.03. 18:00 keine Wolken
Fr, 22.03. 17:50 keine Wolken
Fr, 22.03. 17:30 keine Wolken
Fr, 22.03. 17:00 7(10500m)
Fr, 22.03. 16:30 8(10500m)
Fr, 22.03. 16:00 8(10500m)
Fr, 22.03. 15:30 8(10500m)
Ortszeit Luftdruck NN (hPa) Tendenz (hPa in 3 Std.)
Fr, 22.03. 19:00 1030 - 0,8
Fr, 22.03. 13:00 1033 - 1,4
Fr, 22.03. 7:00 1034 + 0,7
Fr, 22.03. 1:00 1034 + 0,1
Do, 21.03. 19:00 1033 0,0
Do, 21.03. 13:00 1034 - 0,9
Do, 21.03. 7:00 1035 + 0,9
Do, 21.03. 1:00 1035 + 1,0
Ortszeit Luftdruck NN (hPa) Tendenz (hPa in 3 Std.)
Fr, 22.03. 19:00 1030 - 0,8
Fr, 22.03. 18:30 1030 - 1,1
Fr, 22.03. 18:20 1030 keine Meldung
Fr, 22.03. 18:10 1030 keine Meldung
Fr, 22.03. 18:00 1030 - 1,6
Fr, 22.03. 17:50 1030 keine Meldung
Fr, 22.03. 17:30 1030 - 1,9
Fr, 22.03. 17:00 1030 - 2,1
Fr, 22.03. 16:30 1030 - 2,4
Fr, 22.03. 16:00 1030 - 2,4
Fr, 22.03. 15:30 1031 - 2,5
Ortszeit Schneehöhe (cm)
Fr, 22.03. 19:00 0
Fr, 22.03. 13:00 0
Fr, 22.03. 7:00 0
Fr, 22.03. 1:00 0
Do, 21.03. 19:00 0
Do, 21.03. 13:00 0
Do, 21.03. 7:00 0
Do, 21.03. 1:00 0
Ortszeit Schneehöhe (cm)
Fr, 22.03. 19:00 0
Fr, 22.03. 18:30 0
Fr, 22.03. 18:20 0
Fr, 22.03. 18:10 0
Fr, 22.03. 18:00 0
Fr, 22.03. 17:50 0
Fr, 22.03. 17:30 0
Fr, 22.03. 17:00 0
Fr, 22.03. 16:30 0
Fr, 22.03. 16:00 0
Fr, 22.03. 15:30 0
Link zu dieser Seite / Seite empfehlen

Das Wetter in ...